sensor_id;sensor_type;location;lat;lon;timestamp;pressure;altitude;pressure_sealevel;temperature;humidity
59831;BME280;45711;50.108;13.712;2022-07-06T00:01:23;98235.31;;;16.26;71.61
59831;BME280;45711;50.108;13.712;2022-07-06T00:03:49;98229.50;;;16.33;71.59
59831;BME280;45711;50.108;13.712;2022-07-06T00:06:15;98235.31;;;16.26;71.50
59831;BME280;45711;50.108;13.712;2022-07-06T00:08:43;98238.00;;;16.26;70.53
59831;BME280;45711;50.108;13.712;2022-07-06T00:11:09;98235.50;;;16.30;70.80
59831;BME280;45711;50.108;13.712;2022-07-06T00:13:35;98234.66;;;16.21;72.87
59831;BME280;45711;50.108;13.712;2022-07-06T00:16:01;98225.84;;;15.93;73.86
59831;BME280;45711;50.108;13.712;2022-07-06T00:18:27;98223.00;;;15.62;74.64
59831;BME280;45711;50.108;13.712;2022-07-06T00:20:52;98229.91;;;15.81;74.15
59831;BME280;45711;50.108;13.712;2022-07-06T00:23:18;98222.94;;;16.03;73.75
59831;BME280;45711;50.108;13.712;2022-07-06T00:25:45;98223.06;;;15.84;75.15
59831;BME280;45711;50.108;13.712;2022-07-06T00:28:11;98234.41;;;15.72;75.52
59831;BME280;45711;50.108;13.712;2022-07-06T00:30:36;98229.25;;;15.84;74.75
59831;BME280;45711;50.108;13.712;2022-07-06T00:33:02;98235.25;;;15.95;74.11
59831;BME280;45711;50.108;13.712;2022-07-06T00:35:28;98233.78;;;15.75;74.17
59831;BME280;45711;50.108;13.712;2022-07-06T00:37:53;98225.53;;;15.72;73.87
59831;BME280;45711;50.108;13.712;2022-07-06T00:40:19;98222.63;;;15.68;73.29
59831;BME280;45711;50.108;13.712;2022-07-06T00:42:47;98223.78;;;15.76;72.64
59831;BME280;45711;50.108;13.712;2022-07-06T00:45:14;98220.63;;;15.74;72.18
59831;BME280;45711;50.108;13.712;2022-07-06T00:47:40;98225.13;;;15.65;73.50
59831;BME280;45711;50.108;13.712;2022-07-06T00:50:08;98222.53;;;15.59;73.58
59831;BME280;45711;50.108;13.712;2022-07-06T00:52:40;98236.31;;;15.58;74.41
59831;BME280;45711;50.108;13.712;2022-07-06T00:55:06;98230.22;;;15.52;75.25
59831;BME280;45711;50.108;13.712;2022-07-06T00:57:32;98225.22;;;15.59;75.40
59831;BME280;45711;50.108;13.712;2022-07-06T00:59:59;98224.09;;;15.74;73.32
59831;BME280;45711;50.108;13.712;2022-07-06T01:02:25;98221.34;;;15.52;75.08
59831;BME280;45711;50.108;13.712;2022-07-06T01:04:51;98218.66;;;15.52;74.55
59831;BME280;45711;50.108;13.712;2022-07-06T01:07:16;98211.84;;;15.68;72.92
59831;BME280;45711;50.108;13.712;2022-07-06T01:09:42;98213.56;;;15.50;72.87
59831;BME280;45711;50.108;13.712;2022-07-06T01:12:09;98211.25;;;15.44;72.80
59831;BME280;45711;50.108;13.712;2022-07-06T01:14:36;98215.28;;;15.32;72.67
59831;BME280;45711;50.108;13.712;2022-07-06T01:17:03;98209.97;;;15.27;72.82
59831;BME280;45711;50.108;13.712;2022-07-06T01:19:29;98206.59;;;15.22;73.15
59831;BME280;45711;50.108;13.712;2022-07-06T01:21:56;98209.41;;;15.17;73.01
59831;BME280;45711;50.108;13.712;2022-07-06T01:24:22;98217.78;;;15.29;72.39
59831;BME280;45711;50.108;13.712;2022-07-06T01:26:47;98204.69;;;15.22;72.05
59831;BME280;45711;50.108;13.712;2022-07-06T01:29:13;98194.81;;;15.31;72.01
59831;BME280;45711;50.108;13.712;2022-07-06T01:31:46;98204.69;;;15.22;72.18
59831;BME280;45711;50.108;13.712;2022-07-06T01:34:13;98212.31;;;15.20;72.45
59831;BME280;45711;50.108;13.712;2022-07-06T01:36:39;98210.69;;;15.19;72.30
59831;BME280;45711;50.108;13.712;2022-07-06T01:39:08;98208.97;;;15.23;72.03
59831;BME280;45711;50.108;13.712;2022-07-06T01:41:33;98209.72;;;15.15;72.14
59831;BME280;45711;50.108;13.712;2022-07-06T01:43:59;98216.19;;;15.14;71.81
59831;BME280;45711;50.108;13.712;2022-07-06T01:46:25;98223.19;;;15.15;72.72
59831;BME280;45711;50.108;13.712;2022-07-06T01:48:50;98215.84;;;15.57;70.76
59831;BME280;45711;50.108;13.712;2022-07-06T01:51:16;98207.38;;;15.50;71.25
59831;BME280;45711;50.108;13.712;2022-07-06T01:53:42;98204.69;;;15.22;71.80
59831;BME280;45711;50.108;13.712;2022-07-06T01:56:10;98203.50;;;15.42;71.82
59831;BME280;45711;50.108;13.712;2022-07-06T01:58:35;98217.09;;;15.37;72.04
59831;BME280;45711;50.108;13.712;2022-07-06T02:01:06;98220.06;;;15.36;72.26
59831;BME280;45711;50.108;13.712;2022-07-06T02:03:32;98206.97;;;15.43;71.69
59831;BME280;45711;50.108;13.712;2022-07-06T02:05:58;98218.59;;;15.29;72.28
59831;BME280;45711;50.108;13.712;2022-07-06T02:08:23;98212.59;;;15.32;71.90
59831;BME280;45711;50.108;13.712;2022-07-06T02:10:49;98210.69;;;15.33;71.29
59831;BME280;45711;50.108;13.712;2022-07-06T02:13:16;98207.19;;;15.19;71.93
59831;BME280;45711;50.108;13.712;2022-07-06T02:15:42;98217.81;;;15.15;73.21
59831;BME280;45711;50.108;13.712;2022-07-06T02:18:07;98218.25;;;15.45;72.01
59831;BME280;45711;50.108;13.712;2022-07-06T02:20:33;98227.34;;;15.35;72.16
59831;BME280;45711;50.108;13.712;2022-07-06T02:22:58;98221.88;;;15.26;72.22
59831;BME280;45711;50.108;13.712;2022-07-06T02:25:24;98214.47;;;15.46;71.17
59831;BME280;45711;50.108;13.712;2022-07-06T02:27:50;98218.13;;;15.64;70.75
59831;BME280;45711;50.108;13.712;2022-07-06T02:30:17;98216.81;;;15.61;70.58
59831;BME280;45711;50.108;13.712;2022-07-06T02:32:42;98207.13;;;15.60;70.42
59831;BME280;45711;50.108;13.712;2022-07-06T02:35:08;98201.97;;;15.50;70.84
59831;BME280;45711;50.108;13.712;2022-07-06T02:37:34;98210.50;;;15.29;71.62
59831;BME280;45711;50.108;13.712;2022-07-06T02:39:59;98208.28;;;15.31;71.48
59831;BME280;45711;50.108;13.712;2022-07-06T02:42:25;98205.72;;;15.13;72.06
59831;BME280;45711;50.108;13.712;2022-07-06T02:44:52;98218.19;;;15.22;72.51
59831;BME280;45711;50.108;13.712;2022-07-06T02:47:19;98222.78;;;15.08;73.11
59831;BME280;45711;50.108;13.712;2022-07-06T02:49:45;98219.09;;;14.90;72.97
59831;BME280;45711;50.108;13.712;2022-07-06T02:52:11;98216.00;;;14.97;73.36
59831;BME280;45711;50.108;13.712;2022-07-06T02:54:36;98216.69;;;14.89;73.69
59831;BME280;45711;50.108;13.712;2022-07-06T02:57:02;98218.88;;;14.87;73.68
59831;BME280;45711;50.108;13.712;2022-07-06T02:59:28;98225.31;;;14.58;74.31
59831;BME280;45711;50.108;13.712;2022-07-06T03:01:54;98222.28;;;14.78;73.92
59831;BME280;45711;50.108;13.712;2022-07-06T03:04:21;98219.88;;;14.91;73.88
59831;BME280;45711;50.108;13.712;2022-07-06T03:06:46;98212.69;;;14.72;74.39
59831;BME280;45711;50.108;13.712;2022-07-06T03:09:12;98220.69;;;14.77;74.50
59831;BME280;45711;50.108;13.712;2022-07-06T03:11:38;98210.38;;;14.79;74.37
59831;BME280;45711;50.108;13.712;2022-07-06T03:14:04;98223.97;;;14.74;74.39
59831;BME280;45711;50.108;13.712;2022-07-06T03:16:29;98236.25;;;14.80;73.81
59831;BME280;45711;50.108;13.712;2022-07-06T03:18:55;98226.16;;;14.72;74.44
59831;BME280;45711;50.108;13.712;2022-07-06T03:21:22;98233.84;;;14.79;73.95
59831;BME280;45711;50.108;13.712;2022-07-06T03:23:48;98227.06;;;14.68;73.82
59831;BME280;45711;50.108;13.712;2022-07-06T03:26:14;98238.44;;;14.78;73.97
59831;BME280;45711;50.108;13.712;2022-07-06T03:28:39;98239.97;;;14.85;73.50
59831;BME280;45711;50.108;13.712;2022-07-06T03:31:05;98238.06;;;14.85;73.87
59831;BME280;45711;50.108;13.712;2022-07-06T03:33:31;98245.34;;;14.98;73.47
59831;BME280;45711;50.108;13.712;2022-07-06T03:35:56;98257.03;;;14.94;73.98
59831;BME280;45711;50.108;13.712;2022-07-06T03:38:23;98275.78;;;15.13;73.00
59831;BME280;45711;50.108;13.712;2022-07-06T03:40:49;98293.38;;;15.38;72.34
59831;BME280;45711;50.108;13.712;2022-07-06T03:43:15;98317.53;;;15.43;72.18
59831;BME280;45711;50.108;13.712;2022-07-06T03:45:40;98311.75;;;15.36;70.79
59831;BME280;45711;50.108;13.712;2022-07-06T03:48:06;98313.47;;;15.73;69.48
59831;BME280;45711;50.108;13.712;2022-07-06T03:50:32;98306.34;;;15.77;68.34
59831;BME280;45711;50.108;13.712;2022-07-06T03:52:57;98314.41;;;16.27;67.33
59831;BME280;45711;50.108;13.712;2022-07-06T03:55:24;98308.78;;;16.01;66.86
59831;BME280;45711;50.108;13.712;2022-07-06T03:57:50;98316.06;;;16.14;65.71
59831;BME280;45711;50.108;13.712;2022-07-06T04:00:16;98304.72;;;16.26;65.87
59831;BME280;45711;50.108;13.712;2022-07-06T04:02:41;98300.72;;;16.23;65.73
59831;BME280;45711;50.108;13.712;2022-07-06T04:05:08;98299.56;;;16.16;65.81
59831;BME280;45711;50.108;13.712;2022-07-06T04:07:33;98290.47;;;16.12;67.17
59831;BME280;45711;50.108;13.712;2022-07-06T04:09:59;98261.78;;;16.02;66.79
59831;BME280;45711;50.108;13.712;2022-07-06T04:12:26;98260.22;;;16.01;67.30
59831;BME280;45711;50.108;13.712;2022-07-06T04:14:52;98247.09;;;16.08;67.16
59831;BME280;45711;50.108;13.712;2022-07-06T04:17:17;98243.59;;;16.30;65.82
59831;BME280;45711;50.108;13.712;2022-07-06T04:20:02;98250.53;;;16.22;67.70
59831;BME280;45711;50.108;13.712;2022-07-06T04:22:28;98235.53;;;16.61;65.45
59831;BME280;45711;50.108;13.712;2022-07-06T04:24:53;98237.44;;;16.92;64.22
59831;BME280;45711;50.108;13.712;2022-07-06T04:27:19;98229.78;;;16.09;66.01
59831;BME280;45711;50.108;13.712;2022-07-06T04:29:46;98233.16;;;15.92;68.13
59831;BME280;45711;50.108;13.712;2022-07-06T04:32:12;98252.06;;;16.59;66.13
59831;BME280;45711;50.108;13.712;2022-07-06T04:34:37;98245.91;;;16.45;66.79
59831;BME280;45711;50.108;13.712;2022-07-06T04:37:03;98254.75;;;16.15;68.13
59831;BME280;45711;50.108;13.712;2022-07-06T04:39:29;98256.72;;;16.00;68.83
59831;BME280;45711;50.108;13.712;2022-07-06T04:41:57;98267.03;;;15.84;68.67
59831;BME280;45711;50.108;13.712;2022-07-06T04:44:22;98272.00;;;16.05;68.04
59831;BME280;45711;50.108;13.712;2022-07-06T04:46:49;98277.84;;;16.21;68.28
59831;BME280;45711;50.108;13.712;2022-07-06T04:49:15;98278.44;;;16.18;68.96
59831;BME280;45711;50.108;13.712;2022-07-06T04:51:41;98291.88;;;16.09;69.73
59831;BME280;45711;50.108;13.712;2022-07-06T04:54:06;98289.84;;;16.15;69.37
59831;BME280;45711;50.108;13.712;2022-07-06T04:56:32;98287.59;;;16.30;68.81
59831;BME280;45711;50.108;13.712;2022-07-06T04:58:57;98281.66;;;16.20;68.84
59831;BME280;45711;50.108;13.712;2022-07-06T05:01:24;98294.97;;;16.39;69.13
59831;BME280;45711;50.108;13.712;2022-07-06T05:03:51;98290.06;;;16.41;69.25
59831;BME280;45711;50.108;13.712;2022-07-06T05:06:17;98287.97;;;16.38;69.37
59831;BME280;45711;50.108;13.712;2022-07-06T05:08:43;98300.44;;;16.25;70.13
59831;BME280;45711;50.108;13.712;2022-07-06T05:11:09;98305.34;;;16.45;69.06
59831;BME280;45711;50.108;13.712;2022-07-06T05:13:34;98295.16;;;16.42;70.13
59831;BME280;45711;50.108;13.712;2022-07-06T05:16:00;98304.19;;;16.38;69.17
59831;BME280;45711;50.108;13.712;2022-07-06T05:18:25;98303.31;;;16.51;69.81
59831;BME280;45711;50.108;13.712;2022-07-06T05:20:52;98309.81;;;16.50;68.61
59831;BME280;45711;50.108;13.712;2022-07-06T05:23:18;98308.22;;;16.49;68.33
59831;BME280;45711;50.108;13.712;2022-07-06T05:25:44;98310.91;;;16.26;68.06
59831;BME280;45711;50.108;13.712;2022-07-06T05:28:09;98307.75;;;16.47;67.45
59831;BME280;45711;50.108;13.712;2022-07-06T05:30:35;98316.66;;;16.47;67.25
59831;BME280;45711;50.108;13.712;2022-07-06T05:33:00;98318.09;;;16.53;66.65
59831;BME280;45711;50.108;13.712;2022-07-06T05:35:26;98320.94;;;16.48;66.61
59831;BME280;45711;50.108;13.712;2022-07-06T05:37:53;98332.75;;;16.75;66.87
59831;BME280;45711;50.108;13.712;2022-07-06T05:40:20;98340.25;;;16.78;66.78
59831;BME280;45711;50.108;13.712;2022-07-06T05:42:46;98341.28;;;16.91;67.04
59831;BME280;45711;50.108;13.712;2022-07-06T05:45:12;98343.09;;;17.35;65.72
59831;BME280;45711;50.108;13.712;2022-07-06T05:47:38;98354.59;;;17.49;65.55
59831;BME280;45711;50.108;13.712;2022-07-06T05:50:23;98361.44;;;17.47;64.05
59831;BME280;45711;50.108;13.712;2022-07-06T05:52:57;98369.16;;;17.71;62.78
59831;BME280;45711;50.108;13.712;2022-07-06T05:55:23;98368.13;;;17.89;61.95
59831;BME280;45711;50.108;13.712;2022-07-06T05:57:49;98369.47;;;18.26;62.52
59831;BME280;45711;50.108;13.712;2022-07-06T06:00:18;98367.09;;;17.68;62.01
59831;BME280;45711;50.108;13.712;2022-07-06T06:02:44;98373.78;;;17.70;62.34
59831;BME280;45711;50.108;13.712;2022-07-06T06:05:10;98368.59;;;17.43;62.88
59831;BME280;45711;50.108;13.712;2022-07-06T06:07:37;98376.38;;;17.75;62.25
59831;BME280;45711;50.108;13.712;2022-07-06T06:10:07;98370.84;;;17.18;64.00
59831;BME280;45711;50.108;13.712;2022-07-06T06:12:33;98375.50;;;17.26;63.21
59831;BME280;45711;50.108;13.712;2022-07-06T06:14:58;98372.91;;;17.13;63.42
59831;BME280;45711;50.108;13.712;2022-07-06T06:17:24;98373.69;;;17.13;62.02
59831;BME280;45711;50.108;13.712;2022-07-06T06:19:50;98373.69;;;17.44;61.16
59831;BME280;45711;50.108;13.712;2022-07-06T06:22:15;98374.88;;;17.61;60.62
59831;BME280;45711;50.108;13.712;2022-07-06T06:24:41;98375.81;;;17.56;60.79
59831;BME280;45711;50.108;13.712;2022-07-06T06:27:08;98377.53;;;17.52;61.05
59831;BME280;45711;50.108;13.712;2022-07-06T06:29:34;98373.44;;;17.63;60.82
59831;BME280;45711;50.108;13.712;2022-07-06T06:31:59;98374.72;;;17.66;59.04
59831;BME280;45711;50.108;13.712;2022-07-06T06:34:25;98375.34;;;18.11;58.81
59831;BME280;45711;50.108;13.712;2022-07-06T06:36:51;98372.16;;;18.96;57.16
59831;BME280;45711;50.108;13.712;2022-07-06T06:39:16;98369.00;;;18.68;56.18
59831;BME280;45711;50.108;13.712;2022-07-06T06:41:42;98371.72;;;18.42;56.67
59831;BME280;45711;50.108;13.712;2022-07-06T06:44:09;98369.31;;;18.40;55.37
59831;BME280;45711;50.108;13.712;2022-07-06T06:46:35;98371.75;;;18.76;55.63
59831;BME280;45711;50.108;13.712;2022-07-06T06:49:00;98374.75;;;18.83;52.92
59831;BME280;45711;50.108;13.712;2022-07-06T06:51:26;98376.88;;;19.72;53.54
59831;BME280;45711;50.108;13.712;2022-07-06T06:53:51;98373.59;;;19.49;51.37
59831;BME280;45711;50.108;13.712;2022-07-06T06:56:17;98366.66;;;19.30;50.83
59831;BME280;45711;50.108;13.712;2022-07-06T06:58:43;98357.56;;;19.73;50.75
59831;BME280;45711;50.108;13.712;2022-07-06T07:01:10;98364.25;;;20.05;53.78
59831;BME280;45711;50.108;13.712;2022-07-06T07:03:36;98368.53;;;19.86;49.82
59831;BME280;45711;50.108;13.712;2022-07-06T07:06:01;98363.66;;;20.00;47.92
59831;BME280;45711;50.108;13.712;2022-07-06T07:08:27;98356.97;;;19.59;49.45
59831;BME280;45711;50.108;13.712;2022-07-06T07:10:53;98363.13;;;20.27;49.91
59831;BME280;45711;50.108;13.712;2022-07-06T07:13:18;98375.75;;;21.52;46.15
59831;BME280;45711;50.108;13.712;2022-07-06T07:15:44;98371.78;;;22.92;43.10
59831;BME280;45711;50.108;13.712;2022-07-06T07:18:13;98363.47;;;23.32;42.23
59831;BME280;45711;50.108;13.712;2022-07-06T07:20:38;98365.31;;;24.62;43.71
59831;BME280;45711;50.108;13.712;2022-07-06T07:23:07;98369.84;;;23.83;40.87
59831;BME280;45711;50.108;13.712;2022-07-06T07:25:33;98367.88;;;23.37;42.70
59831;BME280;45711;50.108;13.712;2022-07-06T07:27:58;98363.50;;;23.48;40.60
59831;BME280;45711;50.108;13.712;2022-07-06T07:30:24;98361.81;;;22.55;41.84
59831;BME280;45711;50.108;13.712;2022-07-06T07:32:49;98371.53;;;21.43;43.73
59831;BME280;45711;50.108;13.712;2022-07-06T07:35:16;98374.03;;;21.84;46.64
59831;BME280;45711;50.108;13.712;2022-07-06T07:37:42;98373.81;;;21.65;44.94
59831;BME280;45711;50.108;13.712;2022-07-06T07:40:37;98378.53;;;22.42;45.40
59831;BME280;45711;50.108;13.712;2022-07-06T07:44:42;98369.84;;;22.92;44.29
59831;BME280;45711;50.108;13.712;2022-07-06T07:47:50;98368.59;;;22.21;47.05
59831;BME280;45711;50.108;13.712;2022-07-06T07:50:22;98377.56;;;22.62;45.90
59831;BME280;45711;50.108;13.712;2022-07-06T07:52:48;98375.16;;;22.08;44.52
59831;BME280;45711;50.108;13.712;2022-07-06T07:55:14;98379.19;;;22.51;45.21
59831;BME280;45711;50.108;13.712;2022-07-06T07:57:39;98374.38;;;22.07;43.77
59831;BME280;45711;50.108;13.712;2022-07-06T08:00:06;98379.13;;;22.23;43.42
59831;BME280;45711;50.108;13.712;2022-07-06T08:02:32;98371.97;;;23.90;40.31
59831;BME280;45711;50.108;13.712;2022-07-06T08:04:57;98376.75;;;24.87;38.25
59831;BME280;45711;50.108;13.712;2022-07-06T08:30:03;98372.25;;;24.55;42.54
59831;BME280;45711;50.108;13.712;2022-07-06T08:32:12;98377.56;;;24.48;39.73
59831;BME280;45711;50.108;13.712;2022-07-06T08:49:18;98367.44;;;23.35;42.53
59831;BME280;45711;50.108;13.712;2022-07-06T08:52:51;98362.97;;;22.70;43.18
59831;BME280;45711;50.108;13.712;2022-07-06T09:04:32;98351.09;;;24.01;44.16
59831;BME280;45711;50.108;13.712;2022-07-06T09:15:35;98354.22;;;22.37;42.98
59831;BME280;45711;50.108;13.712;2022-07-06T09:18:17;98360.28;;;22.30;43.13
59831;BME280;45711;50.108;13.712;2022-07-06T09:20:58;98354.81;;;23.14;46.32
59831;BME280;45711;50.108;13.712;2022-07-06T09:23:23;98353.69;;;22.99;40.40
59831;BME280;45711;50.108;13.712;2022-07-06T09:25:49;98348.28;;;23.03;42.07
59831;BME280;45711;50.108;13.712;2022-07-06T09:28:15;98358.31;;;22.71;40.44
59831;BME280;45711;50.108;13.712;2022-07-06T09:31:07;98360.63;;;24.62;40.77
59831;BME280;45711;50.108;13.712;2022-07-06T09:36:42;98355.91;;;25.44;38.91
59831;BME280;45711;50.108;13.712;2022-07-06T09:43:00;98350.31;;;24.01;36.47
59831;BME280;45711;50.108;13.712;2022-07-06T09:48:36;98358.97;;;24.57;36.82
59831;BME280;45711;50.108;13.712;2022-07-06T09:51:07;98352.41;;;24.62;34.32
59831;BME280;45711;50.108;13.712;2022-07-06T09:54:13;98354.88;;;24.13;37.95
59831;BME280;45711;50.108;13.712;2022-07-06T09:56:35;98345.00;;;23.73;36.74
59831;BME280;45711;50.108;13.712;2022-07-06T09:59:29;98347.88;;;23.96;36.92
59831;BME280;45711;50.108;13.712;2022-07-06T10:08:29;98341.59;;;25.08;36.04
59831;BME280;45711;50.108;13.712;2022-07-06T10:15:00;98332.19;;;24.47;35.13
59831;BME280;45711;50.108;13.712;2022-07-06T10:20:50;98339.28;;;24.13;40.72
59831;BME280;45711;50.108;13.712;2022-07-06T10:30:51;98336.41;;;24.83;38.23
59831;BME280;45711;50.108;13.712;2022-07-06T10:36:30;98331.72;;;24.26;36.62
59831;BME280;45711;50.108;13.712;2022-07-06T10:40:52;98339.84;;;24.38;38.71
59831;BME280;45711;50.108;13.712;2022-07-06T10:44:31;98343.34;;;24.39;38.13
59831;BME280;45711;50.108;13.712;2022-07-06T10:47:15;98341.94;;;23.94;42.29
59831;BME280;45711;50.108;13.712;2022-07-06T11:27:26;98328.47;;;24.98;39.37
59831;BME280;45711;50.108;13.712;2022-07-06T11:30:49;98328.41;;;25.14;37.52
59831;BME280;45711;50.108;13.712;2022-07-06T11:47:30;98337.94;;;24.62;40.72
59831;BME280;45711;50.108;13.712;2022-07-06T12:24:44;98312.06;;;24.01;37.54
59831;BME280;45711;50.108;13.712;2022-07-06T12:27:19;98315.38;;;24.10;37.48
59831;BME280;45711;50.108;13.712;2022-07-06T12:30:28;98309.41;;;23.69;36.77
59831;BME280;45711;50.108;13.712;2022-07-06T12:33:16;98310.59;;;22.93;38.82
59831;BME280;45711;50.108;13.712;2022-07-06T12:36:21;98315.38;;;23.12;42.48
59831;BME280;45711;50.108;13.712;2022-07-06T12:39:21;98326.72;;;23.77;40.37
59831;BME280;45711;50.108;13.712;2022-07-06T12:42:12;98324.63;;;23.70;37.35
59831;BME280;45711;50.108;13.712;2022-07-06T12:44:52;98322.00;;;23.74;37.52
59831;BME280;45711;50.108;13.712;2022-07-06T12:47:27;98318.66;;;24.00;37.60
59831;BME280;45711;50.108;13.712;2022-07-06T12:50:29;98306.16;;;23.99;38.43
59831;BME280;45711;50.108;13.712;2022-07-06T12:53:02;98301.25;;;23.89;38.42
59831;BME280;45711;50.108;13.712;2022-07-06T12:57:55;98306.22;;;23.67;39.56
59831;BME280;45711;50.108;13.712;2022-07-06T12:58:37;98291.78;;;23.19;41.24
59831;BME280;45711;50.108;13.712;2022-07-06T13:03:55;98284.56;;;23.43;37.06
59831;BME280;45711;50.108;13.712;2022-07-06T13:06:41;98291.72;;;24.18;36.23
59831;BME280;45711;50.108;13.712;2022-07-06T13:09:16;98293.13;;;23.92;39.43
59831;BME280;45711;50.108;13.712;2022-07-06T13:11:56;98286.16;;;23.95;41.00
59831;BME280;45711;50.108;13.712;2022-07-06T13:14:28;98281.19;;;24.00;36.94
59831;BME280;45711;50.108;13.712;2022-07-06T13:16:54;98269.09;;;23.82;41.99
59831;BME280;45711;50.108;13.712;2022-07-06T13:19:25;98267.03;;;23.95;41.69
59831;BME280;45711;50.108;13.712;2022-07-06T13:22:07;98272.69;;;23.86;36.73
59831;BME280;45711;50.108;13.712;2022-07-06T13:24:54;98259.69;;;24.18;34.89
59831;BME280;45711;50.108;13.712;2022-07-06T13:27:44;98261.75;;;24.25;41.32
59831;BME280;45711;50.108;13.712;2022-07-06T13:31:19;98251.34;;;24.11;37.69
59831;BME280;45711;50.108;13.712;2022-07-06T13:33:03;98254.28;;;23.83;37.92
59831;BME280;45711;50.108;13.712;2022-07-06T13:35:36;98260.47;;;23.99;34.75
59831;BME280;45711;50.108;13.712;2022-07-06T13:38:30;98273.00;;;24.00;37.41
59831;BME280;45711;50.108;13.712;2022-07-06T13:41:47;98256.75;;;24.07;42.96
59831;BME280;45711;50.108;13.712;2022-07-06T13:44:29;98269.03;;;23.98;35.69
59831;BME280;45711;50.108;13.712;2022-07-06T13:47:16;98256.38;;;24.09;36.06
59831;BME280;45711;50.108;13.712;2022-07-06T13:50:59;98254.22;;;24.38;37.46
59831;BME280;45711;50.108;13.712;2022-07-06T13:52:52;98264.69;;;24.51;32.63
59831;BME280;45711;50.108;13.712;2022-07-06T13:55:22;98257.75;;;24.80;35.64
59831;BME280;45711;50.108;13.712;2022-07-06T13:57:48;98258.38;;;24.70;32.80
59831;BME280;45711;50.108;13.712;2022-07-06T14:00:26;98246.34;;;24.75;31.50
59831;BME280;45711;50.108;13.712;2022-07-06T14:03:04;98248.53;;;24.46;33.82
59831;BME280;45711;50.108;13.712;2022-07-06T14:06:18;98241.19;;;23.92;32.79
59831;BME280;45711;50.108;13.712;2022-07-06T14:09:05;98246.16;;;24.45;36.45
59831;BME280;45711;50.108;13.712;2022-07-06T14:14:36;98234.50;;;24.28;32.68
59831;BME280;45711;50.108;13.712;2022-07-06T14:17:05;98235.91;;;24.38;32.28
59831;BME280;45711;50.108;13.712;2022-07-06T14:19:52;98240.56;;;24.80;33.08
59831;BME280;45711;50.108;13.712;2022-07-06T14:22:39;98237.34;;;24.74;32.18
59831;BME280;45711;50.108;13.712;2022-07-06T14:25:07;98238.13;;;24.75;36.74
59831;BME280;45711;50.108;13.712;2022-07-06T14:27:40;98240.69;;;24.87;35.69
59831;BME280;45711;50.108;13.712;2022-07-06T14:30:16;98234.34;;;24.60;37.20
59831;BME280;45711;50.108;13.712;2022-07-06T14:32:52;98232.69;;;24.36;35.33
59831;BME280;45711;50.108;13.712;2022-07-06T14:35:24;98227.53;;;23.73;34.47
59831;BME280;45711;50.108;13.712;2022-07-06T14:38:11;98229.88;;;23.74;34.82
59831;BME280;45711;50.108;13.712;2022-07-06T14:40:40;98228.47;;;24.19;39.20
59831;BME280;45711;50.108;13.712;2022-07-06T14:43:11;98234.06;;;24.26;41.75
59831;BME280;45711;50.108;13.712;2022-07-06T14:45:40;98226.59;;;24.04;34.06
59831;BME280;45711;50.108;13.712;2022-07-06T14:48:25;98221.88;;;23.66;35.16
59831;BME280;45711;50.108;13.712;2022-07-06T14:51:06;98220.69;;;23.47;35.68
59831;BME280;45711;50.108;13.712;2022-07-06T14:53:43;98217.00;;;23.94;36.22
59831;BME280;45711;50.108;13.712;2022-07-06T14:56:28;98216.59;;;23.92;35.28
59831;BME280;45711;50.108;13.712;2022-07-06T14:59:02;98209.59;;;23.75;33.70
59831;BME280;45711;50.108;13.712;2022-07-06T15:01:40;98212.78;;;23.77;36.42
59831;BME280;45711;50.108;13.712;2022-07-06T15:04:13;98211.69;;;24.01;39.33
59831;BME280;45711;50.108;13.712;2022-07-06T15:06:48;98214.50;;;24.24;35.08
59831;BME280;45711;50.108;13.712;2022-07-06T15:09:19;98219.59;;;24.45;32.72
59831;BME280;45711;50.108;13.712;2022-07-06T15:11:45;98214.38;;;24.17;38.72
59831;BME280;45711;50.108;13.712;2022-07-06T15:14:10;98209.34;;;24.00;33.32
59831;BME280;45711;50.108;13.712;2022-07-06T15:16:36;98210.19;;;24.23;32.70
59831;BME280;45711;50.108;13.712;2022-07-06T15:19:02;98209.69;;;24.18;38.11
59831;BME280;45711;50.108;13.712;2022-07-06T15:21:29;98210.19;;;24.23;32.92
59831;BME280;45711;50.108;13.712;2022-07-06T15:23:56;98202.47;;;24.29;33.73
59831;BME280;45711;50.108;13.712;2022-07-06T15:26:21;98204.97;;;24.57;37.19
59831;BME280;45711;50.108;13.712;2022-07-06T15:29:37;98205.81;;;24.38;34.61
59831;BME280;45711;50.108;13.712;2022-07-06T15:32:33;98212.34;;;24.53;33.72
59831;BME280;45711;50.108;13.712;2022-07-06T15:35:05;98195.97;;;23.95;35.03
59831;BME280;45711;50.108;13.712;2022-07-06T15:37:58;98193.44;;;23.86;33.85
59831;BME280;45711;50.108;13.712;2022-07-06T15:40:36;98195.81;;;23.52;34.05
59831;BME280;45711;50.108;13.712;2022-07-06T15:43:27;98196.22;;;23.90;40.80
59831;BME280;45711;50.108;13.712;2022-07-06T15:46:04;98198.97;;;23.90;33.86
59831;BME280;45711;50.108;13.712;2022-07-06T15:48:36;98195.72;;;23.65;34.89
59831;BME280;45711;50.108;13.712;2022-07-06T15:51:13;98194.66;;;24.08;33.90
59831;BME280;45711;50.108;13.712;2022-07-06T15:54:00;98185.47;;;24.16;32.87
59831;BME280;45711;50.108;13.712;2022-07-06T15:56:52;98190.31;;;24.26;34.72
59831;BME280;45711;50.108;13.712;2022-07-06T15:59:39;98197.25;;;23.81;33.76
59831;BME280;45711;50.108;13.712;2022-07-06T16:05:06;98192.19;;;23.64;34.40
59831;BME280;45711;50.108;13.712;2022-07-06T16:07:32;98194.16;;;23.83;33.50
59831;BME280;45711;50.108;13.712;2022-07-06T16:10:05;98197.31;;;24.04;35.23
59831;BME280;45711;50.108;13.712;2022-07-06T16:12:33;98188.88;;;24.52;34.22
59831;BME280;45711;50.108;13.712;2022-07-06T16:15:02;98200.97;;;24.31;34.30
59831;BME280;45711;50.108;13.712;2022-07-06T16:17:34;98184.84;;;24.46;36.23
59831;BME280;45711;50.108;13.712;2022-07-06T16:20:08;98185.50;;;23.81;35.74